Time;durP1;ratioP1;P1;durP2;ratioP2;P2;SDS_P1;SDS_P2;PMS_P1;PMS_P2;Temp;Humidity;BMP_temperature;BMP_pressure;BME280_temperature;BME280_humidity;BME280_pressure;Samples;Min_cycle;Max_cycle;Signal;HPM_P1;HPM_P2
2021/12/08 00:00:17;;;;;;;;;;;;;;;11.34;34.25;93388.06;5055934;28;20242;-49
2021/12/08 00:02:44;;;;;;;;;;;;;;;10.86;34.31;93394.34;5041659;28;19920;-45
2021/12/08 00:05:13;;;;;;;;;;;;;;;11.24;33.81;93391.03;5051911;28;19917;-45
2021/12/08 00:07:40;;;;;;;;;;;;;;;11.28;34.17;93394.56;5056216;28;20204;-44
2021/12/08 00:10:27;;;;;;;;;;;;;;;11.07;34.25;93400.44;5067539;28;19916;-46
2021/12/08 00:13:03;;;;;;;;;;;;;;;11.02;34.12;93402.47;5066457;28;19912;-46
2021/12/08 00:15:30;;;;;;;;;;;;;;;10.99;34.37;93414.31;5075758;28;19920;-61
2021/12/08 00:17:57;;;;;;;;;;;;;;;10.89;34.27;93413.88;5058541;28;19919;-46
2021/12/08 00:20:27;;;;;;;;;;;;;;;11.39;33.44;93416.66;5067704;28;19947;-51
2021/12/08 00:22:54;;;;;;;;;;;;;;;11.32;33.80;93406.69;5075411;28;19916;-50
2021/12/08 00:25:21;;;;;;;;;;;;;;;11.00;34.19;93421.09;5075368;28;19912;-46
2021/12/08 00:27:48;;;;;;;;;;;;;;;11.07;34.39;93431.84;5075855;28;19913;-45
2021/12/08 00:30:16;;;;;;;;;;;;;;;11.11;34.14;93424.91;5075441;28;20318;-48
2021/12/08 00:32:43;;;;;;;;;;;;;;;11.26;34.00;93422.88;5075616;28;19920;-45
2021/12/08 00:35:11;;;;;;;;;;;;;;;11.42;33.74;93431.72;5074858;28;19923;-49
2021/12/08 00:37:38;;;;;;;;;;;;;;;11.24;33.79;93441.50;5075775;28;19920;-45
2021/12/08 00:40:05;;;;;;;;;;;;;;;10.88;34.56;93425.41;5073960;28;19928;-50
2021/12/08 00:42:32;;;;;;;;;;;;;;;10.92;34.34;93434.16;5075772;28;19912;-46
2021/12/08 00:44:59;;;;;;;;;;;;;;;10.73;34.44;93450.19;5075267;28;19919;-50
2021/12/08 00:47:26;;;;;;;;;;;;;;;10.90;33.78;93447.53;5037207;28;19924;-48
2021/12/08 00:49:53;;;;;;;;;;;;;;;11.31;33.70;93446.25;5046076;28;19913;-49
2021/12/08 00:52:20;;;;;;;;;;;;;;;10.87;34.42;93463.09;5055506;28;19924;-49
2021/12/08 00:54:47;;;;;;;;;;;;;;;11.27;33.77;93445.34;5055371;28;20338;-51
2021/12/08 00:57:14;;;;;;;;;;;;;;;11.47;32.99;93452.53;5055347;28;19912;-51
2021/12/08 00:59:41;;;;;;;;;;;;;;;11.58;32.76;93445.84;5053034;28;19919;-47
2021/12/08 01:02:08;;;;;;;;;;;;;;;11.39;33.30;93440.97;5035445;28;19913;-46
2021/12/08 01:04:35;;;;;;;;;;;;;;;11.77;32.26;93447.31;5035396;28;19928;-46
2021/12/08 01:07:02;;;;;;;;;;;;;;;11.09;33.84;93455.84;5035298;28;19913;-47
2021/12/08 01:09:29;;;;;;;;;;;;;;;11.12;33.77;93449.97;5046115;28;20298;-48
2021/12/08 01:11:59;;;;;;;;;;;;;;;10.95;33.94;93465.72;5075072;28;19916;-49
2021/12/08 01:14:26;;;;;;;;;;;;;;;10.78;34.03;93460.50;5074856;28;19987;-50
2021/12/08 01:16:52;;;;;;;;;;;;;;;11.10;33.79;93457.38;5074006;28;19912;-46
2021/12/08 01:19:19;;;;;;;;;;;;;;;11.01;33.95;93454.00;5073011;28;19912;-47
2021/12/08 01:21:46;;;;;;;;;;;;;;;10.89;33.99;93453.84;5060459;28;19925;-54
2021/12/08 01:24:13;;;;;;;;;;;;;;;11.06;33.61;93456.47;5050198;28;19913;-45
2021/12/08 01:26:40;;;;;;;;;;;;;;;11.24;33.78;93457.19;5068725;28;19924;-50
2021/12/08 01:29:08;;;;;;;;;;;;;;;11.01;33.50;93458.47;5067140;28;19924;-51
2021/12/08 01:31:41;;;;;;;;;;;;;;;11.24;33.49;93451.19;5074244;28;20222;-45
2021/12/08 01:34:08;;;;;;;;;;;;;;;10.88;33.96;93460.16;5073462;28;19924;-46
2021/12/08 01:36:36;;;;;;;;;;;;;;;11.15;33.60;93456.44;5075118;28;20142;-47
2021/12/08 01:39:03;;;;;;;;;;;;;;;11.09;33.64;93460.28;5078153;28;19917;-52
2021/12/08 01:41:30;;;;;;;;;;;;;;;11.09;33.44;93455.84;5078584;28;19924;-45
2021/12/08 01:46:42;;;;;;;;;;;;;;;10.96;33.75;93462.03;5078520;28;19923;-49
2021/12/08 01:49:09;;;;;;;;;;;;;;;11.61;32.60;93458.31;5078161;28;20262;-52
2021/12/08 01:51:36;;;;;;;;;;;;;;;11.40;33.15;93465.31;5078564;28;19921;-45
2021/12/08 01:54:05;;;;;;;;;;;;;;;11.17;33.72;93469.19;5078314;28;20242;-47
2021/12/08 01:56:33;;;;;;;;;;;;;;;11.37;33.06;93465.94;5078462;28;19945;-46
2021/12/08 01:59:00;;;;;;;;;;;;;;;11.24;33.52;93478.13;5078165;28;19919;-46
2021/12/08 02:01:28;;;;;;;;;;;;;;;11.25;33.45;93481.50;5078183;28;19927;-45
2021/12/08 02:03:54;;;;;;;;;;;;;;;10.95;34.22;93470.94;5078027;28;19923;-55
2021/12/08 02:06:21;;;;;;;;;;;;;;;10.84;34.29;93477.53;5078245;28;19923;-46
2021/12/08 02:08:51;;;;;;;;;;;;;;;11.11;33.43;93487.69;5078204;28;20341;-49
2021/12/08 02:11:19;;;;;;;;;;;;;;;10.82;34.19;93484.94;5077669;28;19924;-55
2021/12/08 02:13:46;;;;;;;;;;;;;;;11.15;33.86;93481.81;5077431;28;20303;-52
2021/12/08 02:16:14;;;;;;;;;;;;;;;11.06;33.69;93490.47;5078236;28;19912;-45
2021/12/08 02:18:42;;;;;;;;;;;;;;;12.33;32.09;93494.06;5078407;28;20223;-48
2021/12/08 02:21:21;;;;;;;;;;;;;;;11.39;32.99;93495.16;5077938;28;20287;-45
2021/12/08 02:23:48;;;;;;;;;;;;;;;11.21;33.42;93493.69;5077958;28;20242;-45
2021/12/08 02:26:15;;;;;;;;;;;;;;;11.28;33.14;93493.97;5077109;28;19947;-53
2021/12/08 02:28:42;;;;;;;;;;;;;;;11.28;33.33;93509.66;5078244;28;19920;-47
2021/12/08 02:31:13;;;;;;;;;;;;;;;11.64;32.85;93507.41;5077726;28;19913;-44
2021/12/08 02:47:43;;;;;;;;;;;;;;;11.07;33.77;93523.38;5077627;28;19916;-46
2021/12/08 02:50:10;;;;;;;;;;;;;;;10.70;34.51;93514.31;5077555;28;19919;-44
2021/12/08 02:52:37;;;;;;;;;;;;;;;10.99;34.31;93516.31;5060853;28;19913;-45
2021/12/08 02:55:05;;;;;;;;;;;;;;;11.53;33.37;93506.22;5067457;28;19916;-47
2021/12/08 02:57:32;;;;;;;;;;;;;;;10.95;34.43;93512.78;5077128;28;19912;-46
2021/12/08 02:59:59;;;;;;;;;;;;;;;10.85;34.21;93513.06;5077278;28;19919;-48
2021/12/08 03:02:26;;;;;;;;;;;;;;;11.46;33.39;93511.19;5075935;28;19920;-50
2021/12/08 03:04:53;;;;;;;;;;;;;;;11.57;32.95;93507.13;5067822;28;19927;-52
2021/12/08 03:07:20;;;;;;;;;;;;;;;10.96;34.25;93514.31;5077192;28;19913;-53
2021/12/08 03:09:47;;;;;;;;;;;;;;;11.16;34.25;93523.38;5076817;28;19920;-52
2021/12/08 03:12:13;;;;;;;;;;;;;;;11.48;33.49;93519.50;5077039;28;19923;-47
2021/12/08 03:14:40;;;;;;;;;;;;;;;11.12;33.95;93514.59;5076730;28;20290;-44
2021/12/08 03:17:09;;;;;;;;;;;;;;;11.41;33.66;93521.78;5077216;28;20349;-53
2021/12/08 03:19:36;;;;;;;;;;;;;;;11.16;33.80;93517.38;5077364;28;19923;-51
2021/12/08 03:22:09;;;;;;;;;;;;;;;11.19;33.75;93517.53;5076156;28;19942;-51
2021/12/08 03:24:38;;;;;;;;;;;;;;;11.26;33.59;93532.75;5075712;28;19923;-57
2021/12/08 03:27:10;;;;;;;;;;;;;;;11.51;33.42;93518.88;5077231;28;19912;-52
2021/12/08 03:32:17;;;;;;;;;;;;;;;10.85;34.22;93528.75;5076852;28;19923;-47
2021/12/08 03:34:52;;;;;;;;;;;;;;;10.90;34.44;93538.28;5076245;28;19920;-50
2021/12/08 03:37:21;;;;;;;;;;;;;;;10.99;34.25;93532.00;5058493;28;19916;-47
2021/12/08 03:39:49;;;;;;;;;;;;;;;10.96;34.38;93539.72;5076442;28;19923;-52
2021/12/08 03:42:18;;;;;;;;;;;;;;;10.89;34.44;93536.75;5076668;28;19921;-46
2021/12/08 03:44:45;;;;;;;;;;;;;;;11.54;33.49;93544.41;5075505;28;19916;-46
2021/12/08 03:47:17;;;;;;;;;;;;;;;11.77;32.92;93549.44;5076680;28;19912;-46
2021/12/08 03:49:46;;;;;;;;;;;;;;;11.45;33.04;93551.53;5075184;28;19931;-50
2021/12/08 03:52:13;;;;;;;;;;;;;;;11.53;33.41;93557.81;5076495;28;19912;-44
2021/12/08 03:54:40;;;;;;;;;;;;;;;11.18;33.70;93555.22;5075863;28;20326;-45
2021/12/08 03:57:07;;;;;;;;;;;;;;;11.33;33.78;93560.00;5075878;28;19912;-53
2021/12/08 03:59:34;;;;;;;;;;;;;;;11.20;33.65;93560.94;5075965;28;19916;-48
2021/12/08 04:02:01;;;;;;;;;;;;;;;12.37;31.99;93564.19;5075995;28;20338;-46
2021/12/08 04:04:29;;;;;;;;;;;;;;;11.48;33.45;93577.06;5075796;28;19916;-46
2021/12/08 04:07:02;;;;;;;;;;;;;;;11.72;33.31;93566.88;5076151;28;19916;-45
2021/12/08 04:09:40;;;;;;;;;;;;;;;11.53;33.33;93569.06;5074854;28;19923;-49
2021/12/08 04:12:07;;;;;;;;;;;;;;;11.36;33.32;93576.91;5075858;28;19912;-47
2021/12/08 04:14:39;;;;;;;;;;;;;;;11.34;33.84;93572.00;5075250;28;19919;-44
2021/12/08 04:17:09;;;;;;;;;;;;;;;11.74;32.66;93575.19;5075372;28;20298;-51
2021/12/08 04:19:36;;;;;;;;;;;;;;;11.58;33.01;93576.75;5076054;28;20231;-48
2021/12/08 04:22:29;;;;;;;;;;;;;;;11.53;33.45;93571.66;5075847;28;19943;-45
2021/12/08 04:24:56;;;;;;;;;;;;;;;11.38;33.34;93582.59;5072754;28;19924;-51
2021/12/08 04:27:25;;;;;;;;;;;;;;;11.24;33.72;93577.56;5075599;28;19912;-45
2021/12/08 04:29:52;;;;;;;;;;;;;;;11.59;33.37;93586.13;5076041;28;20234;-45
2021/12/08 04:32:19;;;;;;;;;;;;;;;11.73;33.23;93583.34;5075735;28;20330;-45
2021/12/08 04:34:48;;;;;;;;;;;;;;;11.87;32.72;93594.41;5075448;28;20271;-50
2021/12/08 04:37:21;;;;;;;;;;;;;;;11.66;32.98;93591.66;5066628;28;20228;-49
2021/12/08 04:40:10;;;;;;;;;;;;;;;11.30;33.77;93597.25;5075235;28;20238;-51
2021/12/08 04:45:14;;;;;;;;;;;;;;;11.42;33.47;93607.09;5074790;28;20315;-59
2021/12/08 05:01:17;;;;;;;;;;;;;;;11.56;33.11;93631.25;5074713;28;19924;-53
2021/12/08 05:06:43;;;;;;;;;;;;;;;11.19;34.01;93635.28;5074686;28;19916;-52
2021/12/08 05:09:18;;;;;;;;;;;;;;;11.45;33.13;93635.28;5074367;28;19913;-45
2021/12/08 05:11:54;;;;;;;;;;;;;;;11.13;33.99;93650.31;5074045;28;20299;-45
2021/12/08 05:14:23;;;;;;;;;;;;;;;11.07;34.34;93645.56;5074960;28;19916;-46
2021/12/08 05:16:52;;;;;;;;;;;;;;;11.15;34.36;93657.09;5075016;28;19912;-47
2021/12/08 05:19:21;;;;;;;;;;;;;;;11.24;34.44;93655.28;5075156;28;19912;-46
2021/12/08 05:21:53;;;;;;;;;;;;;;;11.65;32.75;93658.19;5062386;22;19929;-50
2021/12/08 05:24:32;;;;;;;;;;;;;;;11.54;33.71;93664.06;5054042;28;19919;-44
2021/12/08 05:27:05;;;;;;;;;;;;;;;11.63;33.29;93662.97;5037179;28;19920;-46
2021/12/08 05:29:41;;;;;;;;;;;;;;;11.81;32.84;93668.22;5055340;28;20267;-60
2021/12/08 05:32:08;;;;;;;;;;;;;;;11.90;32.85;93666.34;5052172;28;20361;-52
2021/12/08 05:34:35;;;;;;;;;;;;;;;11.56;33.37;93678.38;5045032;28;19913;-46
2021/12/08 05:37:03;;;;;;;;;;;;;;;11.56;33.58;93675.00;5054463;28;20370;-48
2021/12/08 05:39:31;;;;;;;;;;;;;;;12.04;32.63;93669.59;5055992;28;19919;-48
2021/12/08 05:42:00;;;;;;;;;;;;;;;11.90;32.69;93674.22;5037201;28;19932;-47
2021/12/08 05:44:27;;;;;;;;;;;;;;;11.66;33.21;93672.03;5064183;28;19917;-47
2021/12/08 05:46:55;;;;;;;;;;;;;;;11.65;32.82;93679.13;5075541;28;20264;-47
2021/12/08 05:49:22;;;;;;;;;;;;;;;11.52;33.45;93692.38;5059449;28;19913;-54
2021/12/08 05:51:50;;;;;;;;;;;;;;;11.52;33.79;93693.16;5052112;28;19924;-48
2021/12/08 05:54:18;;;;;;;;;;;;;;;11.70;32.98;93694.69;5043553;28;20231;-46
2021/12/08 05:56:47;;;;;;;;;;;;;;;11.52;33.41;93693.16;5053332;28;20227;-49
2021/12/08 05:59:14;;;;;;;;;;;;;;;11.52;33.56;93695.00;5055528;28;19913;-48
2021/12/08 06:01:41;;;;;;;;;;;;;;;12.03;32.76;93691.63;5043724;28;19924;-47
2021/12/08 06:04:08;;;;;;;;;;;;;;;11.78;33.19;93702.88;5037639;28;19917;-52
2021/12/08 06:06:35;;;;;;;;;;;;;;;12.02;32.95;93697.94;5045990;28;19920;-47
2021/12/08 06:09:05;;;;;;;;;;;;;;;11.42;33.87;93703.91;5049961;28;19945;-47
2021/12/08 06:11:32;;;;;;;;;;;;;;;12.00;32.79;93707.97;5034898;28;19913;-48
2021/12/08 06:14:00;;;;;;;;;;;;;;;11.68;33.18;93711.78;5034298;28;19920;-47
2021/12/08 06:16:27;;;;;;;;;;;;;;;11.51;33.48;93719.66;5037823;28;20300;-48
2021/12/08 06:18:54;;;;;;;;;;;;;;;11.52;33.60;93724.56;5055541;28;19912;-48
2021/12/08 06:21:24;;;;;;;;;;;;;;;11.48;33.39;93728.88;5054266;28;19920;-49
2021/12/08 06:23:51;;;;;;;;;;;;;;;11.64;32.91;93729.97;5057034;28;20583;-57
2021/12/08 06:26:18;;;;;;;;;;;;;;;11.40;32.95;93721.78;5058660;28;19917;-48
2021/12/08 06:28:45;;;;;;;;;;;;;;;11.54;32.65;93725.03;5059168;28;19913;-46
2021/12/08 06:31:13;;;;;;;;;;;;;;;11.34;32.92;93733.47;5058952;28;19913;-48
2021/12/08 06:33:39;;;;;;;;;;;;;;;11.23;33.54;93732.22;5057687;28;19923;-48
2021/12/08 06:36:09;;;;;;;;;;;;;;;11.11;33.41;93728.34;5058962;28;19912;-47
2021/12/08 06:38:37;;;;;;;;;;;;;;;11.67;32.63;93737.19;5058611;28;19967;-50
2021/12/08 06:41:11;;;;;;;;;;;;;;;12.31;31.52;93733.97;5058648;28;19916;-47
2021/12/08 06:43:40;;;;;;;;;;;;;;;11.38;32.74;93737.00;5040707;28;19923;-47
2021/12/08 06:46:07;;;;;;;;;;;;;;;11.99;32.03;93737.88;5058827;28;19916;-48
2021/12/08 06:48:39;;;;;;;;;;;;;;;11.26;33.29;93736.84;5058287;28;19992;-47
2021/12/08 06:51:08;;;;;;;;;;;;;;;11.48;32.78;93736.75;5057290;28;19920;-48
2021/12/08 06:53:36;;;;;;;;;;;;;;;11.80;32.59;93734.78;5058339;28;19919;-47
2021/12/08 06:56:08;;;;;;;;;;;;;;;11.77;32.50;93735.38;5057984;28;19913;-52
2021/12/08 06:58:36;;;;;;;;;;;;;;;11.76;32.76;93733.84;5058356;28;19928;-51
2021/12/08 07:01:21;;;;;;;;;;;;;;;11.53;32.64;93736.59;5057760;28;20239;-48
2021/12/08 07:04:08;;;;;;;;;;;;;;;11.35;33.02;93735.78;5058106;28;19917;-54
2021/12/08 07:09:16;;;;;;;;;;;;;;;11.68;32.34;93738.72;5057157;28;19912;-46
2021/12/08 07:11:43;;;;;;;;;;;;;;;11.66;33.00;93735.66;5057169;28;19917;-47
2021/12/08 07:14:10;;;;;;;;;;;;;;;11.26;33.08;93744.69;5057550;28;20267;-46
2021/12/08 07:16:39;;;;;;;;;;;;;;;11.24;33.33;93736.38;5057998;28;19938;-48
2021/12/08 07:19:10;;;;;;;;;;;;;;;12.09;31.51;93742.78;5040378;28;19912;-48
2021/12/08 07:21:41;;;;;;;;;;;;;;;11.15;32.62;93744.19;5057578;28;19924;-47
2021/12/08 07:24:13;;;;;;;;;;;;;;;11.28;32.37;93747.78;5058199;28;20318;-48
2021/12/08 07:26:41;;;;;;;;;;;;;;;12.14;31.42;93758.34;5058365;28;19920;-52
2021/12/08 07:29:08;;;;;;;;;;;;;;;11.65;32.08;93765.53;5058120;28;19916;-47
2021/12/08 07:31:39;;;;;;;;;;;;;;;11.30;32.88;93771.78;5057886;28;19920;-48
2021/12/08 07:34:08;;;;;;;;;;;;;;;11.37;32.96;93766.88;5057177;28;19913;-46
2021/12/08 07:36:37;;;;;;;;;;;;;;;11.58;32.37;93760.00;5057964;28;19920;-47
2021/12/08 07:39:06;;;;;;;;;;;;;;;11.55;32.46;93772.94;5040702;28;19913;-48
2021/12/08 07:41:34;;;;;;;;;;;;;;;11.30;32.85;93777.03;5039507;28;19924;-47
2021/12/08 07:44:05;;;;;;;;;;;;;;;11.42;32.54;93777.19;5057531;28;19924;-49
2021/12/08 07:46:46;;;;;;;;;;;;;;;11.18;33.14;93787.28;5057603;28;19913;-48
2021/12/08 07:49:17;;;;;;;;;;;;;;;11.69;32.60;93784.78;5057671;28;19943;-48
2021/12/08 07:51:47;;;;;;;;;;;;;;;11.55;32.46;93780.78;5056839;28;19913;-48
2021/12/08 07:54:14;;;;;;;;;;;;;;;11.76;32.03;93786.19;5057548;28;19914;-47
2021/12/08 07:56:43;;;;;;;;;;;;;;;11.30;32.75;93775.19;5057698;28;20233;-47
2021/12/08 07:59:11;;;;;;;;;;;;;;;11.44;32.81;93785.50;5057655;28;19923;-48
2021/12/08 08:01:40;;;;;;;;;;;;;;;11.34;33.11;93786.56;5057333;28;19927;-47
2021/12/08 08:04:09;;;;;;;;;;;;;;;11.30;32.65;93796.13;5057027;28;19983;-49
2021/12/08 08:06:39;;;;;;;;;;;;;;;11.07;32.99;93800.66;5057255;28;19920;-47
2021/12/08 08:09:09;;;;;;;;;;;;;;;11.44;32.65;93795.97;5057150;28;19923;-48
2021/12/08 08:11:40;;;;;;;;;;;;;;;12.05;31.89;93809.97;5055864;28;20223;-46
2021/12/08 08:14:07;;;;;;;;;;;;;;;11.19;32.95;93809.75;5054390;28;19916;-46
2021/12/08 08:16:35;;;;;;;;;;;;;;;11.34;32.91;93817.97;5057043;28;19913;-47
2021/12/08 08:19:08;;;;;;;;;;;;;;;11.81;32.18;93820.13;5057130;28;19924;-47
2021/12/08 08:21:37;;;;;;;;;;;;;;;11.40;32.59;93808.13;5056295;28;20231;-47
2021/12/08 08:24:05;;;;;;;;;;;;;;;11.46;32.76;93814.03;5055938;28;19912;-48
2021/12/08 08:26:32;;;;;;;;;;;;;;;11.59;32.59;93821.75;5056532;28;19919;-48
2021/12/08 08:28:59;;;;;;;;;;;;;;;11.62;32.19;93815.13;5056511;28;20234;-46
2021/12/08 08:31:30;;;;;;;;;;;;;;;11.50;32.66;93815.72;5056443;28;20259;-47
2021/12/08 08:33:57;;;;;;;;;;;;;;;11.46;32.44;93814.03;5056071;28;19920;-47
2021/12/08 08:36:27;;;;;;;;;;;;;;;11.67;32.28;93813.13;5055865;28;19920;-52
2021/12/08 08:38:56;;;;;;;;;;;;;;;11.87;31.67;93805.78;5055678;28;20220;-52
2021/12/08 08:41:25;;;;;;;;;;;;;;;11.64;32.65;93816.34;5054410;28;19951;-51
2021/12/08 08:43:53;;;;;;;;;;;;;;;11.57;32.32;93816.03;5055397;28;20315;-52
2021/12/08 08:46:23;;;;;;;;;;;;;;;11.74;31.92;93818.69;5054412;28;19920;-53
2021/12/08 08:48:53;;;;;;;;;;;;;;;12.14;31.70;93817.81;5055738;28;19920;-51
2021/12/08 08:51:40;;;;;;;;;;;;;;;11.82;32.19;93805.94;5054733;28;19912;-51
2021/12/08 08:54:13;;;;;;;;;;;;;;;12.12;31.60;93805.03;5000090;28;19917;-52
2021/12/08 08:56:41;;;;;;;;;;;;;;;12.11;32.12;93813.97;5054104;28;19912;-52
2021/12/08 08:59:12;;;;;;;;;;;;;;;12.15;31.39;93801.78;5035392;28;19928;-52
2021/12/08 09:01:40;;;;;;;;;;;;;;;11.78;32.06;93799.75;5034294;28;19928;-49
2021/12/08 09:04:11;;;;;;;;;;;;;;;11.78;32.59;93799.75;5051228;28;19913;-51
2021/12/08 09:06:40;;;;;;;;;;;;;;;11.67;32.87;93800.03;5055039;28;20227;-50
2021/12/08 09:09:08;;;;;;;;;;;;;;;11.78;32.08;93791.91;5054281;28;19913;-52
2021/12/08 09:11:38;;;;;;;;;;;;;;;11.27;32.75;93790.72;5055106;28;19912;-47
2021/12/08 09:14:09;;;;;;;;;;;;;;;11.94;32.16;93787.75;5055622;28;19913;-48
2021/12/08 09:16:37;;;;;;;;;;;;;;;12.54;31.01;93779.09;5055725;28;19912;-47
2021/12/08 09:19:07;;;;;;;;;;;;;;;12.39;31.11;93771.72;5037980;28;19924;-47
2021/12/08 09:21:37;;;;;;;;;;;;;;;12.32;31.54;93767.72;5054724;28;19925;-49
2021/12/08 09:24:09;;;;;;;;;;;;;;;12.17;31.47;93762.94;5055198;28;19920;-47
2021/12/08 09:26:38;;;;;;;;;;;;;;;12.18;31.59;93761.09;5055953;28;20292;-46
2021/12/08 09:29:22;;;;;;;;;;;;;;;12.28;31.21;93761.56;5055860;28;19916;-55
2021/12/08 09:31:56;;;;;;;;;;;;;;;12.29;32.03;93760.47;5055552;28;19921;-62
2021/12/08 09:34:30;;;;;;;;;;;;;;;12.27;31.77;93767.13;5055473;28;19913;-48
2021/12/08 09:36:59;;;;;;;;;;;;;;;12.46;31.63;93766.75;5056105;28;19919;-49
2021/12/08 09:39:28;;;;;;;;;;;;;;;12.29;31.96;93757.09;5055953;28;20197;-48
2021/12/08 09:42:07;;;;;;;;;;;;;;;12.69;31.60;93754.97;5055754;28;19924;-48
2021/12/08 09:44:38;;;;;;;;;;;;;;;12.30;32.29;93748.91;5046458;28;20288;-50
2021/12/08 09:47:05;;;;;;;;;;;;;;;12.60;31.52;93751.63;5054942;28;19924;-52
2021/12/08 09:49:34;;;;;;;;;;;;;;;12.85;31.12;93752.63;5055409;28;19912;-48
2021/12/08 09:52:01;;;;;;;;;;;;;;;12.50;32.24;93751.97;5054868;28;19923;-48
2021/12/08 09:54:28;;;;;;;;;;;;;;;12.65;31.67;93748.84;5055230;28;19991;-48
2021/12/08 09:56:55;;;;;;;;;;;;;;;12.30;32.64;93738.44;5055327;28;20223;-48
2021/12/08 09:59:22;;;;;;;;;;;;;;;12.56;32.02;93740.22;5058978;28;19916;-51
2021/12/08 10:01:51;;;;;;;;;;;;;;;12.91;31.46;93736.41;5058791;28;19920;-52
2021/12/08 10:04:18;;;;;;;;;;;;;;;12.33;32.24;93744.91;5058718;28;20031;-51
2021/12/08 10:06:49;;;;;;;;;;;;;;;12.07;32.82;93744.94;5058538;28;19916;-51
2021/12/08 10:09:19;;;;;;;;;;;;;;;12.55;32.15;93749.19;5058612;28;19919;-49
2021/12/08 10:11:46;;;;;;;;;;;;;;;12.33;32.51;93753.53;5058533;28;19924;-48
2021/12/08 10:14:13;;;;;;;;;;;;;;;12.12;33.18;93742.16;5058799;28;19920;-52
2021/12/08 10:16:40;;;;;;;;;;;;;;;12.30;32.55;93759.41;5058571;28;19919;-48
2021/12/08 10:19:07;;;;;;;;;;;;;;;12.84;31.92;93762.34;5058896;28;19916;-52
2021/12/08 10:21:41;;;;;;;;;;;;;;;12.71;32.32;93747.56;5058219;28;20247;-47
2021/12/08 10:24:24;;;;;;;;;;;;;;;12.16;33.11;93748.31;5058408;28;19921;-52
2021/12/08 10:26:52;;;;;;;;;;;;;;;12.38;32.72;93743.97;5058533;28;19912;-48
2021/12/08 10:29:23;;;;;;;;;;;;;;;12.48;32.78;93741.00;5041728;28;19913;-48
2021/12/08 10:31:53;;;;;;;;;;;;;;;12.88;31.95;93742.28;5058364;28;19916;-53
2021/12/08 10:36:55;;;;;;;;;;;;;;;12.92;31.90;93737.94;5058867;28;19912;-47
2021/12/08 10:39:23;;;;;;;;;;;;;;;12.52;32.61;93739.31;5057691;28;19913;-47
2021/12/08 10:41:59;;;;;;;;;;;;;;;12.88;32.05;93731.78;5058551;28;19919;-48
2021/12/08 10:44:26;;;;;;;;;;;;;;;13.38;30.89;93733.72;5058599;28;19923;-47
2021/12/08 10:46:57;;;;;;;;;;;;;;;13.15;30.89;93735.06;5058702;28;19913;-48
2021/12/08 10:54:25;;;;;;;;;;;;;;;12.78;31.49;93737.38;5057513;28;19920;-47
2021/12/08 10:54:57;;;;;;;;;;;;;;;12.78;31.71;93726.91;5058594;28;19912;-48
2021/12/08 10:57:34;;;;;;;;;;;;;;;12.49;32.29;93734.69;5058639;28;20345;-52
2021/12/08 11:00:09;;;;;;;;;;;;;;;12.41;32.15;93732.84;5058658;28;19983;-47
2021/12/08 11:02:40;;;;;;;;;;;;;;;12.28;32.81;93724.88;5058299;28;19916;-46
2021/12/08 11:05:10;;;;;;;;;;;;;;;12.19;32.71;93726.72;5058142;28;19927;-52
2021/12/08 11:07:36;;;;;;;;;;;;;;;12.33;32.32;93727.31;5057609;28;20304;-48
2021/12/08 11:10:16;;;;;;;;;;;;;;;11.99;32.54;93730.00;5057273;28;19913;-49
2021/12/08 11:12:43;;;;;;;;;;;;;;;12.22;32.64;93733.97;5058055;28;19920;-50
2021/12/08 11:15:20;;;;;;;;;;;;;;;12.51;32.27;93737.78;5056034;28;20300;-51
2021/12/08 11:17:48;;;;;;;;;;;;;;;12.55;32.08;93742.09;5050008;28;19917;-53
2021/12/08 11:20:19;;;;;;;;;;;;;;;12.45;32.24;93739.00;5041400;28;20227;-49
2021/12/08 11:22:58;;;;;;;;;;;;;;;12.28;32.48;93745.84;5058116;28;19925;-49
2021/12/08 11:25:46;;;;;;;;;;;;;;;12.28;32.30;93745.84;5057648;28;20251;-49
2021/12/08 11:28:29;;;;;;;;;;;;;;;12.69;32.03;93752.38;5057211;28;19920;-48
2021/12/08 11:31:07;;;;;;;;;;;;;;;12.53;32.33;93743.47;5056134;28;19920;-52
2021/12/08 11:33:37;;;;;;;;;;;;;;;12.34;32.49;93741.97;5056219;28;19916;-53
2021/12/08 11:36:15;;;;;;;;;;;;;;;12.49;32.18;93742.53;5056312;28;20227;-48
2021/12/08 11:38:43;;;;;;;;;;;;;;;12.35;32.19;93743.50;5058081;28;19931;-48
2021/12/08 11:41:21;;;;;;;;;;;;;;;12.09;32.56;93737.53;5057765;28;19913;-48
2021/12/08 11:43:51;;;;;;;;;;;;;;;12.00;32.48;93744.66;5057377;28;19917;-48
2021/12/08 11:46:19;;;;;;;;;;;;;;;12.63;32.06;93745.75;5056966;28;19912;-48
2021/12/08 11:48:58;;;;;;;;;;;;;;;12.67;31.99;93746.66;5057794;28;20235;-49
2021/12/08 11:51:25;;;;;;;;;;;;;;;12.70;31.84;93756.53;5057256;28;19943;-47
2021/12/08 11:53:52;;;;;;;;;;;;;;;12.01;32.59;93754.81;5056452;28;19920;-47
2021/12/08 11:56:38;;;;;;;;;;;;;;;12.11;33.07;93758.97;5056567;28;19912;-48
2021/12/08 11:59:07;;;;;;;;;;;;;;;12.33;32.18;93758.00;5057796;28;19913;-46
2021/12/08 12:01:34;;;;;;;;;;;;;;;11.92;32.86;93759.25;5057479;28;20208;-47
2021/12/08 12:04:01;;;;;;;;;;;;;;;12.60;31.94;93759.50;5056464;28;19935;-48
2021/12/08 12:06:28;;;;;;;;;;;;;;;11.82;32.97;93764.03;5057467;28;20414;-47
2021/12/08 12:08:56;;;;;;;;;;;;;;;12.04;32.23;93761.28;5055572;28;20337;-52
2021/12/08 12:11:25;;;;;;;;;;;;;;;12.62;31.61;93757.31;5055889;28;19917;-51
2021/12/08 12:13:53;;;;;;;;;;;;;;;12.36;31.72;93765.25;5053883;28;19917;-52
2021/12/08 12:16:20;;;;;;;;;;;;;;;12.21;32.16;93760.47;5055958;28;19917;-51
2021/12/08 12:18:47;;;;;;;;;;;;;;;12.19;32.17;93771.28;5056702;28;19912;-47
2021/12/08 12:21:20;;;;;;;;;;;;;;;12.58;31.87;93767.66;5063952;28;19924;-58
2021/12/08 12:23:52;;;;;;;;;;;;;;;11.61;33.27;93767.22;5039215;28;20234;-48
2021/12/08 12:26:34;;;;;;;;;;;;;;;12.00;32.54;93770.84;5056361;28;20192;-48
2021/12/08 12:29:11;;;;;;;;;;;;;;;12.43;32.23;93768.16;5057285;28;19917;-48
2021/12/08 12:31:54;;;;;;;;;;;;;;;12.49;31.58;93766.13;5055743;28;19917;-49
2021/12/08 12:34:21;;;;;;;;;;;;;;;12.02;32.75;93773.91;5056088;28;19913;-49
2021/12/08 12:36:48;;;;;;;;;;;;;;;11.94;32.39;93777.28;5057281;28;19912;-48
2021/12/08 12:39:16;;;;;;;;;;;;;;;11.87;33.12;93771.75;5056703;28;19916;-69
2021/12/08 12:41:44;;;;;;;;;;;;;;;12.01;32.85;93773.16;5055059;28;19912;-51
2021/12/08 12:44:21;;;;;;;;;;;;;;;12.26;32.01;93766.34;5055269;28;19928;-51
2021/12/08 12:47:08;;;;;;;;;;;;;;;12.31;32.33;93766.19;5055924;28;19920;-51
2021/12/08 12:49:36;;;;;;;;;;;;;;;12.29;31.98;93778.84;5054989;28;19916;-51
2021/12/08 12:52:07;;;;;;;;;;;;;;;12.67;31.26;93783.38;5054818;28;20303;-53
2021/12/08 12:54:35;;;;;;;;;;;;;;;12.21;31.99;93786.69;5055295;28;20239;-53
2021/12/08 12:57:06;;;;;;;;;;;;;;;12.19;31.92;93783.59;5055444;28;19990;-53
2021/12/08 12:59:43;;;;;;;;;;;;;;;12.02;32.68;93785.16;5054776;28;19912;-49
2021/12/08 13:02:17;;;;;;;;;;;;;;;11.88;32.29;93781.16;5056034;28;19912;-48
2021/12/08 13:04:56;;;;;;;;;;;;;;;11.72;32.45;93784.19;5046388;28;19920;-48
2021/12/08 13:07:27;;;;;;;;;;;;;;;11.91;32.20;93793.63;5036441;28;19913;-48
2021/12/08 13:09:55;;;;;;;;;;;;;;;11.37;33.52;93793.03;5036776;28;19920;-47
2021/12/08 13:12:38;;;;;;;;;;;;;;;11.82;32.78;93793.63;5051494;28;19939;-48
2021/12/08 13:15:28;;;;;;;;;;;;;;;11.26;33.61;93799.66;5056284;28;19920;-48
2021/12/08 13:17:58;;;;;;;;;;;;;;;11.37;33.01;93790.44;5055974;28;19935;-47
2021/12/08 13:20:26;;;;;;;;;;;;;;;11.30;33.55;93795.34;5054574;28;19920;-48
2021/12/08 13:23:01;;;;;;;;;;;;;;;11.63;33.14;93793.88;5055047;28;19925;-50
2021/12/08 13:25:32;;;;;;;;;;;;;;;11.62;33.09;93794.19;5054783;28;19923;-51
2021/12/08 13:28:09;;;;;;;;;;;;;;;11.39;33.43;93794.28;5054685;28;19916;-51
2021/12/08 13:30:43;;;;;;;;;;;;;;;11.08;33.75;93789.13;5054445;28;20332;-52
2021/12/08 13:33:22;;;;;;;;;;;;;;;11.22;33.52;93798.72;5055420;28;19922;-52
2021/12/08 13:35:49;;;;;;;;;;;;;;;11.33;33.23;93799.97;5058592;28;19919;-46
2021/12/08 13:38:16;;;;;;;;;;;;;;;11.16;33.66;93802.53;5059041;28;20327;-71
2021/12/08 13:40:44;;;;;;;;;;;;;;;11.80;33.21;93797.63;5054473;28;19925;-68
2021/12/08 13:43:12;;;;;;;;;;;;;;;11.09;34.20;93801.13;5044305;28;20007;-66
2021/12/08 13:45:43;;;;;;;;;;;;;;;11.51;33.28;93801.56;5057816;28;19919;-70
2021/12/08 13:48:09;;;;;;;;;;;;;;;11.15;34.04;93798.38;5058338;28;19916;-71